e-Mail: Password: Lost your password? Click here. - Register a new user

c h a v e z j u a r e z . c o m

Weather - Tiempo - Wetter - Temps

METAR DATA MMMX (Mexico City)

Mexico City / Licenci, Mexico (MMMX) 19-26N 099-06W
Nov 24, 2017 - 10:43 AM EST / 2017.11.24 1543 UTC
Wind: Calm:0
Visibility: 6 mile(s):0
Sky conditions: clear
Temperature: 55 F (13 C)
Dew Point: 30 F (-1 C)
Relative Humidity: 37%
Pressure (altimeter): 30.33 in. Hg (1027 hPa)
ob: MMMX 241543Z 00000KT 6SM SKC 13/M01 A3033 NOSIG RMK HZY
cycle: 15

Mexico City

St. Prex




Current weather alarms for Switzerland


www.wetteralarm.ch